East Lynn, IL (60932)

3:06 AM CST on February 12, 2016 (GMT -0600)
Milford, IL - Dave Lucht | | Change Station
CLOSE
Current Station
Personal Weather Station
Location: Milford, IL
Elevation: 635 ft
Nearby Weather Stations

Elev 635 ft 40.63 °N, 87.69 °W | Updated 12 seconds ago

Overcast
Overcast
18.3 °F
Feels Like 18 °F
N
0.0
Wind Variable Wind from WSW
Gusts 0.0 mph

Today
High -- | Low -- °F
--% Chance of Precip.
Yesterday
High -- | Low -- °F
Precip. -- in
Pressure 30.18 in
Visibility 10.0 miles
Clouds Overcast 6000 ft
Windchill 18 °F
Dew Point 12 °F
Humidity 77%
Rainfall 0.00 in
Snow Depth Not available.
6:49 AM 5:22 PM
Waxing Crescent, 19% visible
METAR KDNV 120855Z AUTO 00000KT 10SM OVC060 M07/M12 A3018 RMK AO2 T10711119
Pressure 30.18 in
Visibility 10.0 miles
Clouds Overcast 6000 ft
Windchill 18 °F
Dew Point 12 °F
Humidity 77%
Rainfall 0.00 in
Snow Depth Not available.
6:49 AM 5:22 PM
Waxing Crescent, 19% visible
METAR KDNV 120855Z AUTO 00000KT 10SM OVC060 M07/M12 A3018 RMK AO2 T10711119

10-Day Weather Forecast

Almanac

Astronomy

Feb. 12, 2016 Rise Set
Actual Time
Civil Twilight
Nautical Twilight
Astronomical Twilight
Moon
Length of Visible Light
Length of Day
Tomorrow will be .
, % of the Moon is Illuminated

Today's Extremes

State Highs State Lows

Community

WunderPhotos

Upload Photos

1,892,286 photos uploaded!

WunderBlog® & News

Nearby

Air Quality

  Air Quality AQ Index Pollutant
Not available.

Snow Depth

Station Depth Elevation

Earthquake Activity

City Distance Mag. Time & Date
Minimum magnitude displayed is 2.5.

Coastal Water Temperatures

Place Temperature

Stations

Nearby Weather Stations

Station Location Temp. Windchill Dew Point Humidity Wind Precip. Elev Updated Type
                   

Watches & Warnings

There are currently no watches in effect.